createdAt,value
2019-02-19T00:01:02.387Z,8.27
2019-02-19T00:03:32.183Z,10.93
2019-02-19T00:06:02.010Z,9.97
2019-02-19T00:08:34.352Z,10.57
2019-02-19T00:11:04.151Z,9.97
2019-02-19T00:13:34.197Z,9.47
2019-02-19T00:16:04.077Z,8.93
2019-02-19T00:18:37.446Z,6.97
2019-02-19T00:21:07.283Z,8.73
2019-02-19T00:23:37.408Z,9.83
2019-02-19T00:26:28.605Z,9.63
2019-02-19T00:28:58.466Z,7.90
2019-02-19T00:31:28.309Z,8.30
2019-02-19T00:33:58.196Z,7.37
2019-02-19T00:36:28.392Z,8.53
2019-02-19T00:38:58.229Z,7.90
2019-02-19T00:41:28.242Z,6.60
2019-02-19T00:43:59.045Z,6.27
2019-02-19T00:46:30.213Z,6.90
2019-02-19T00:49:00.021Z,6.37
2019-02-19T00:51:30.247Z,5.67
2019-02-19T00:54:00.215Z,6.00
2019-02-19T00:56:30.012Z,6.73
2019-02-19T00:59:13.457Z,7.20
2019-02-19T01:01:43.306Z,7.47
2019-02-19T01:04:13.093Z,7.00
2019-02-19T01:06:43.041Z,5.73
2019-02-19T01:09:13.000Z,6.33
2019-02-19T01:11:47.229Z,6.37
2019-02-19T01:14:20.345Z,6.40
2019-02-19T01:16:50.121Z,6.83
2019-02-19T01:19:20.327Z,6.37
2019-02-19T01:21:50.174Z,6.37
2019-02-19T01:24:19.948Z,5.50
2019-02-19T01:26:50.346Z,5.80
2019-02-19T01:29:31.524Z,7.13
2019-02-19T01:32:01.397Z,6.10
2019-02-19T01:34:34.875Z,5.70
2019-02-19T01:37:05.169Z,6.50
2019-02-19T01:39:34.943Z,7.13
2019-02-19T01:42:06.720Z,6.23
2019-02-19T01:44:36.819Z,7.30
2019-02-19T01:47:07.905Z,6.67
2019-02-19T01:49:38.015Z,6.57
2019-02-19T01:52:15.443Z,7.00
2019-02-19T01:54:45.670Z,7.43
2019-02-19T01:57:17.354Z,8.23
2019-02-19T02:00:07.010Z,8.07
2019-02-19T02:02:36.851Z,7.80
2019-02-19T02:05:06.796Z,8.97
2019-02-19T02:07:41.535Z,8.17
2019-02-19T02:10:11.327Z,9.90
2019-02-19T02:12:41.081Z,9.40
2019-02-19T02:15:10.980Z,10.07
2019-02-19T02:17:40.797Z,10.17
2019-02-19T02:20:10.692Z,9.47
2019-02-19T02:22:41.450Z,9.93
2019-02-19T02:25:11.281Z,9.93
2019-02-19T02:27:41.078Z,10.47
2019-02-19T02:30:11.382Z,10.60
2019-02-19T02:32:41.225Z,9.80
2019-02-19T02:35:11.497Z,11.23
2019-02-19T02:37:56.337Z,10.50
2019-02-19T02:40:26.582Z,9.57
2019-02-19T02:42:56.583Z,11.33
2019-02-19T02:45:27.139Z,10.00
2019-02-19T02:47:57.232Z,11.33
2019-02-19T02:50:33.173Z,11.93
2019-02-19T02:53:03.989Z,11.00
2019-02-19T02:55:41.312Z,10.70
2019-02-19T02:58:11.182Z,11.13
2019-02-19T03:00:41.013Z,11.43
2019-02-19T03:03:10.899Z,12.23
2019-02-19T03:05:54.103Z,10.97
2019-02-19T03:08:24.112Z,12.03
2019-02-19T03:10:53.930Z,11.60
2019-02-19T03:13:28.487Z,10.83
2019-02-19T03:16:02.445Z,11.77
2019-02-19T03:18:29.802Z,12.87
2019-02-19T03:20:59.631Z,13.47
2019-02-19T03:23:29.421Z,14.40
2019-02-19T03:25:59.181Z,14.43
2019-02-19T03:29:02.741Z,12.93
2019-02-19T03:31:32.530Z,13.67
2019-02-19T03:34:02.375Z,14.20
2019-02-19T03:36:32.684Z,13.00
2019-02-19T03:39:02.498Z,13.27
2019-02-19T03:41:32.690Z,12.63
2019-02-19T03:44:05.179Z,14.27
2019-02-19T03:46:34.921Z,13.40
2019-02-19T03:49:05.755Z,13.33
2019-02-19T03:51:35.586Z,13.97
2019-02-19T03:54:05.951Z,14.37
2019-02-19T03:56:35.888Z,14.00
2019-02-19T03:59:06.461Z,14.40
2019-02-19T04:01:36.233Z,14.67
2019-02-19T04:04:06.216Z,14.90
2019-02-19T04:06:36.456Z,13.83
2019-02-19T04:09:06.505Z,13.70
2019-02-19T04:11:36.810Z,13.47
2019-02-19T04:15:00.340Z,14.73
2019-02-19T04:17:30.191Z,13.07
2019-02-19T04:19:59.989Z,13.23
2019-02-19T04:22:29.715Z,12.90
2019-02-19T04:25:00.017Z,12.83
2019-02-19T04:27:29.820Z,13.77
2019-02-19T04:29:59.674Z,14.17
2019-02-19T04:32:49.233Z,14.57
2019-02-19T04:35:19.070Z,12.97
2019-02-19T04:37:48.852Z,13.33
2019-02-19T04:40:18.831Z,11.40
2019-02-19T04:42:48.935Z,12.63
2019-02-19T04:45:18.757Z,12.63
2019-02-19T04:47:48.609Z,12.47
2019-02-19T04:50:19.776Z,11.83
2019-02-19T04:52:50.289Z,11.43
2019-02-19T04:55:20.361Z,11.33
2019-02-19T04:57:52.519Z,10.70
2019-02-19T05:00:22.850Z,12.70
2019-02-19T05:02:52.916Z,14.53
2019-02-19T05:05:22.738Z,13.03
2019-02-19T05:08:11.634Z,12.40
2019-02-19T05:10:42.992Z,12.13
2019-02-19T05:13:15.557Z,12.80
2019-02-19T05:15:47.946Z,11.57
2019-02-19T05:18:21.187Z,12.03
2019-02-19T05:20:51.050Z,11.83
2019-02-19T05:23:28.834Z,11.57
2019-02-19T05:25:58.720Z,12.93
2019-02-19T05:28:28.665Z,11.90
2019-02-19T05:30:58.595Z,12.87
2019-02-19T05:33:29.171Z,12.00
2019-02-19T05:35:58.970Z,13.13
2019-02-19T05:38:28.795Z,13.73
2019-02-19T05:41:01.851Z,12.93
2019-02-19T05:43:32.499Z,13.20
2019-02-19T05:46:02.295Z,14.03
2019-02-19T05:48:34.021Z,12.30
2019-02-19T05:51:04.987Z,13.37
2019-02-19T05:53:35.896Z,13.43
2019-02-19T05:56:06.340Z,14.17
2019-02-19T05:58:37.805Z,13.97
2019-02-19T06:01:08.040Z,12.20
2019-02-19T06:03:38.062Z,14.37
2019-02-19T06:06:08.310Z,15.93
2019-02-19T06:08:43.455Z,15.83
2019-02-19T06:11:16.440Z,14.13
2019-02-19T06:13:49.345Z,14.27
2019-02-19T06:16:25.403Z,13.67
2019-02-19T06:18:55.815Z,16.17
2019-02-19T06:21:25.929Z,15.53
2019-02-19T06:23:56.134Z,16.67
2019-02-19T06:26:26.122Z,15.93
2019-02-19T06:29:03.344Z,15.90
2019-02-19T06:31:33.169Z,16.33
2019-02-19T06:34:03.383Z,17.47
2019-02-19T06:36:40.259Z,16.00
2019-02-19T06:39:10.191Z,16.33
2019-02-19T06:41:39.946Z,17.03
2019-02-19T06:44:18.110Z,16.17
2019-02-19T06:46:48.129Z,14.93
2019-02-19T06:49:17.905Z,17.50
2019-02-19T06:51:47.877Z,16.40
2019-02-19T06:54:17.735Z,16.27
2019-02-19T06:56:47.760Z,18.50
2019-02-19T06:59:20.175Z,17.43
2019-02-19T07:02:07.691Z,18.17
2019-02-19T07:04:41.256Z,15.67
2019-02-19T07:07:19.862Z,17.23
2019-02-19T07:09:49.699Z,16.43
2019-02-19T07:12:22.311Z,17.47
2019-02-19T07:14:52.182Z,16.63
2019-02-19T07:17:22.177Z,16.07
2019-02-19T07:19:54.508Z,17.30
2019-02-19T07:22:25.636Z,16.57
2019-02-19T07:24:55.417Z,16.10
2019-02-19T07:27:25.211Z,16.20
2019-02-19T07:29:55.808Z,18.50
2019-02-19T07:32:26.196Z,16.93
2019-02-19T07:34:55.985Z,17.30
2019-02-19T07:37:26.245Z,15.00
2019-02-19T07:39:58.461Z,15.57
2019-02-19T07:42:28.329Z,17.17
2019-02-19T07:44:59.720Z,16.60
2019-02-19T07:47:29.570Z,17.23
2019-02-19T07:50:06.531Z,23.50
2019-02-19T07:52:37.405Z,17.87
2019-02-19T07:55:12.202Z,16.00
2019-02-19T07:57:48.219Z,17.53
2019-02-19T08:00:18.168Z,15.57
2019-02-19T08:02:48.794Z,15.33
2019-02-19T08:05:22.387Z,15.47
2019-02-19T08:07:56.732Z,16.37
2019-02-19T08:10:27.160Z,16.00
2019-02-19T08:12:57.361Z,14.77
2019-02-19T08:15:27.110Z,15.63
2019-02-19T08:17:56.935Z,20.53
2019-02-19T08:20:26.941Z,14.03
2019-02-19T08:22:58.336Z,13.87
2019-02-19T08:25:28.864Z,15.00
2019-02-19T08:27:59.297Z,14.43
2019-02-19T08:30:29.426Z,14.30
2019-02-19T08:33:08.340Z,13.87
2019-02-19T08:35:38.197Z,13.57
2019-02-19T08:38:07.992Z,12.80
2019-02-19T08:40:38.721Z,13.60
2019-02-19T08:43:08.474Z,12.20
2019-02-19T08:45:39.095Z,11.67
2019-02-19T08:48:13.809Z,12.10
2019-02-19T08:50:43.679Z,11.33
2019-02-19T08:53:26.354Z,11.37
2019-02-19T08:56:01.398Z,11.10
2019-02-19T08:58:32.379Z,10.67
2019-02-19T09:01:06.981Z,9.47
2019-02-19T09:03:37.096Z,9.37
2019-02-19T09:06:09.232Z,9.73
2019-02-19T09:08:40.236Z,8.77
2019-02-19T09:11:12.472Z,9.57
2019-02-19T09:13:45.204Z,9.27
2019-02-19T09:16:24.436Z,9.00
2019-02-19T09:18:54.309Z,8.90
2019-02-19T09:21:24.266Z,8.77
2019-02-19T09:24:09.299Z,8.97
2019-02-19T09:26:35.706Z,9.50
2019-02-19T09:29:05.485Z,9.17
2019-02-19T09:31:35.427Z,8.37
2019-02-19T09:34:05.388Z,9.10
2019-02-19T09:36:40.156Z,9.70
2019-02-19T09:39:11.556Z,9.30
2019-02-19T09:41:41.500Z,8.60
2019-02-19T09:44:18.944Z,8.53
2019-02-19T09:46:48.780Z,6.93
2019-02-19T09:49:23.097Z,7.17
2019-02-19T09:52:11.680Z,7.60
2019-02-19T09:54:42.326Z,6.20
2019-02-19T09:57:43.121Z,6.53
2019-02-19T10:00:21.591Z,7.70
2019-02-19T10:02:51.622Z,7.73
2019-02-19T10:05:26.941Z,6.73
2019-02-19T10:07:56.854Z,5.70
2019-02-19T10:10:26.867Z,5.43
2019-02-19T10:12:56.980Z,5.10
2019-02-19T10:15:52.499Z,6.30
2019-02-19T10:18:23.578Z,5.47
2019-02-19T10:20:53.360Z,4.60
2019-02-19T10:23:23.215Z,4.73
2019-02-19T10:25:53.484Z,4.23
2019-02-19T10:28:23.339Z,5.20
2019-02-19T10:30:56.197Z,4.27
2019-02-19T10:33:25.985Z,4.53
2019-02-19T10:35:55.889Z,5.67
2019-02-19T10:38:35.594Z,12.23
2019-02-19T10:41:05.479Z,9.33
2019-02-19T10:43:35.280Z,7.03
2019-02-19T10:46:05.804Z,9.43
2019-02-19T10:48:38.794Z,7.77
2019-02-19T10:51:08.706Z,7.27
2019-02-19T10:53:38.781Z,6.27
2019-02-19T10:56:09.688Z,5.20
2019-02-19T10:58:39.923Z,6.40
2019-02-19T11:01:13.125Z,6.33
2019-02-19T11:03:43.545Z,5.30
2019-02-19T11:06:13.854Z,5.37
2019-02-19T11:08:46.743Z,6.50
2019-02-19T11:11:20.325Z,6.50
2019-02-19T11:13:50.166Z,5.97
2019-02-19T11:16:20.055Z,6.27
2019-02-19T11:18:50.202Z,6.90
2019-02-19T11:21:20.557Z,6.00
2019-02-19T11:23:50.323Z,6.77
2019-02-19T11:26:32.990Z,6.50
2019-02-19T11:29:03.148Z,8.47
2019-02-19T11:31:37.585Z,11.60
2019-02-19T11:34:08.088Z,7.47
2019-02-19T11:36:38.496Z,7.33
2019-02-19T11:39:11.705Z,9.43
2019-02-19T11:41:42.001Z,8.63
2019-02-19T11:44:12.497Z,7.10
2019-02-19T11:46:42.431Z,6.87
2019-02-19T11:49:13.195Z,6.47
2019-02-19T11:51:45.077Z,15.80
2019-02-19T11:54:22.511Z,7.57
2019-02-19T11:56:53.991Z,19.07
2019-02-19T11:59:24.148Z,9.57
2019-02-19T12:01:56.464Z,8.77
2019-02-19T12:04:26.443Z,16.87
2019-02-19T12:06:59.643Z,6.87
2019-02-19T12:09:34.691Z,6.07
2019-02-19T12:12:04.584Z,6.20
2019-02-19T12:14:37.338Z,9.00
2019-02-19T12:17:11.745Z,12.33
2019-02-19T12:19:42.259Z,9.20
2019-02-19T12:22:12.345Z,6.37
2019-02-19T12:24:42.223Z,6.90
2019-02-19T12:27:22.515Z,6.63
2019-02-19T12:29:52.954Z,9.77
2019-02-19T12:32:46.442Z,7.20
2019-02-19T12:35:19.503Z,5.00
2019-02-19T12:37:49.517Z,6.27
2019-02-19T12:40:22.376Z,6.20
2019-02-19T12:42:53.266Z,5.73
2019-02-19T12:45:23.278Z,6.30
2019-02-19T12:47:59.198Z,5.87
2019-02-19T12:50:30.459Z,5.90
2019-02-19T12:53:00.322Z,6.00
2019-02-19T12:55:30.450Z,5.70
2019-02-19T12:58:07.818Z,6.10
2019-02-19T13:00:41.440Z,7.00
2019-02-19T13:03:13.793Z,5.83
2019-02-19T13:05:45.800Z,6.47
2019-02-19T13:08:19.100Z,5.13
2019-02-19T13:10:53.078Z,5.83
2019-02-19T13:13:28.185Z,5.03
2019-02-19T13:15:58.280Z,4.70
2019-02-19T13:18:34.102Z,5.20
2019-02-19T13:21:05.007Z,5.37
2019-02-19T13:23:53.153Z,6.10
2019-02-19T13:26:23.240Z,4.97
2019-02-19T13:28:53.670Z,5.33
2019-02-19T13:31:33.595Z,5.30
2019-02-19T13:34:03.513Z,4.73
2019-02-19T13:36:33.996Z,4.50
2019-02-19T13:39:06.189Z,4.73
2019-02-19T13:41:50.315Z,5.37
2019-02-19T13:44:20.181Z,4.90
2019-02-19T13:46:51.941Z,4.90
2019-02-19T13:49:26.392Z,5.33
2019-02-19T13:52:05.179Z,5.60
2019-02-19T13:54:45.440Z,5.37
2019-02-19T13:57:16.773Z,4.97
2019-02-19T13:59:48.489Z,5.87
2019-02-19T14:02:24.249Z,4.80
2019-02-19T14:04:54.628Z,5.03
2019-02-19T14:07:27.530Z,4.80
2019-02-19T14:10:03.434Z,4.70
2019-02-19T14:12:37.328Z,4.37
2019-02-19T14:15:31.689Z,4.43
2019-02-19T14:18:03.177Z,4.80
2019-02-19T14:20:51.645Z,4.57
2019-02-19T14:23:43.419Z,5.00
2019-02-19T14:26:31.210Z,5.50
2019-02-19T14:29:20.427Z,5.60
2019-02-19T14:32:06.385Z,6.03
2019-02-19T14:35:01.538Z,5.43
2019-02-19T14:37:48.263Z,10.10
2019-02-19T14:40:34.386Z,6.93
2019-02-19T14:43:33.456Z,5.43
2019-02-19T14:46:17.689Z,4.73
2019-02-19T14:49:10.426Z,4.77
2019-02-19T14:51:59.094Z,5.17
2019-02-19T14:54:53.921Z,4.93
2019-02-19T14:57:41.208Z,4.60
2019-02-19T15:00:43.705Z,5.10
2019-02-19T15:03:32.861Z,4.60
2019-02-19T15:06:28.739Z,5.63
2019-02-19T15:09:34.767Z,8.93
2019-02-19T15:12:22.901Z,8.90
2019-02-19T15:15:13.791Z,6.00
2019-02-19T15:18:03.191Z,6.87
2019-02-19T15:20:52.515Z,5.40
2019-02-19T15:23:47.700Z,5.23
2019-02-19T15:26:46.945Z,5.10
2019-02-19T15:29:47.343Z,5.03
2019-02-19T15:32:36.426Z,5.73
2019-02-19T15:35:32.703Z,5.57
2019-02-19T15:38:25.954Z,4.97
2019-02-19T15:41:15.939Z,5.30
2019-02-19T15:44:05.363Z,5.63
2019-02-19T15:46:52.671Z,5.40
2019-02-19T15:49:47.670Z,5.43
2019-02-19T15:52:39.464Z,4.80
2019-02-19T15:56:05.283Z,4.33
2019-02-19T15:59:05.488Z,3.30
2019-02-19T16:01:44.094Z,2.97
2019-02-19T16:04:48.736Z,3.00
2019-02-19T16:07:36.876Z,3.37
2019-02-19T16:10:36.363Z,3.10
2019-02-19T16:13:28.087Z,2.57
2019-02-19T16:16:25.638Z,2.80
2019-02-19T16:19:00.940Z,3.00
2019-02-19T16:22:10.788Z,2.97
2019-02-19T16:25:15.190Z,3.07
2019-02-19T16:28:32.093Z,2.57
2019-02-19T16:31:21.503Z,2.40
2019-02-19T16:34:24.211Z,2.53
2019-02-19T16:37:25.237Z,2.30
2019-02-19T16:40:15.310Z,2.17
2019-02-19T16:43:00.520Z,2.03
2019-02-19T16:46:07.649Z,2.27
2019-02-19T16:49:04.785Z,2.77
2019-02-19T16:52:00.156Z,1.97
2019-02-19T16:54:58.743Z,2.37
2019-02-19T16:57:49.332Z,3.77
2019-02-19T17:00:38.279Z,2.73
2019-02-19T17:03:31.447Z,2.60
2019-02-19T17:06:15.283Z,3.10
2019-02-19T17:09:14.155Z,6.13
2019-02-19T17:12:12.889Z,4.03
2019-02-19T17:15:04.440Z,3.63
2019-02-19T17:17:57.751Z,4.77
2019-02-19T17:20:49.715Z,5.73
2019-02-19T17:23:38.219Z,3.20
2019-02-19T17:26:34.210Z,3.13
2019-02-19T17:29:27.621Z,2.80
2019-02-19T17:32:20.658Z,2.67
2019-02-19T17:35:22.425Z,2.37
2019-02-19T17:38:31.505Z,2.60
2019-02-19T17:41:30.758Z,2.80
2019-02-19T17:44:17.767Z,3.13
2019-02-19T17:47:05.254Z,3.07
2019-02-19T17:50:14.179Z,2.13
2019-02-19T17:53:06.100Z,2.40
2019-02-19T17:56:06.638Z,2.57
2019-02-19T17:58:50.678Z,3.37
2019-02-19T18:01:53.085Z,8.23
2019-02-19T18:04:48.680Z,3.77
2019-02-19T18:07:39.641Z,7.73
2019-02-19T18:10:33.564Z,4.60
2019-02-19T18:13:27.704Z,3.97
2019-02-19T18:16:17.899Z,5.70
2019-02-19T18:19:01.016Z,5.43
2019-02-19T18:21:32.925Z,6.77
2019-02-19T18:24:05.863Z,9.40
2019-02-19T18:26:48.185Z,9.53
2019-02-19T18:29:30.109Z,8.00
2019-02-19T18:32:01.299Z,10.03
2019-02-19T18:34:32.847Z,9.53
2019-02-19T18:37:03.027Z,9.77
2019-02-19T18:39:35.967Z,9.60
2019-02-19T18:42:24.573Z,11.30
2019-02-19T18:45:06.857Z,11.97
2019-02-19T18:47:37.291Z,13.13
2019-02-19T18:50:20.563Z,12.37
2019-02-19T18:52:57.076Z,10.20
2019-02-19T18:55:30.039Z,9.53
2019-02-19T18:58:04.509Z,7.97
2019-02-19T19:00:47.365Z,9.93
2019-02-19T19:03:24.530Z,10.97
2019-02-19T19:06:10.951Z,8.77
2019-02-19T19:08:49.580Z,8.53
2019-02-19T19:11:23.275Z,5.30
2019-02-19T19:14:00.831Z,5.47
2019-02-19T19:16:33.985Z,6.77
2019-02-19T19:19:13.874Z,4.13
2019-02-19T19:21:53.860Z,3.60
2019-02-19T19:24:33.191Z,4.93
2019-02-19T19:27:16.568Z,6.93
2019-02-19T19:29:59.272Z,17.37
2019-02-19T19:32:41.086Z,5.27
2019-02-19T19:36:00.219Z,3.47
2019-02-19T19:42:14.853Z,4.03
2019-02-19T19:45:13.264Z,3.07
2019-02-19T19:48:50.716Z,4.90
2019-02-19T19:51:25.818Z,4.17
2019-02-19T19:54:10.274Z,4.87
2019-02-19T19:56:45.275Z,5.67
2019-02-19T19:59:19.320Z,3.20
2019-02-19T20:02:05.606Z,6.63
2019-02-19T20:05:05.229Z,4.70
2019-02-19T20:07:44.092Z,2.93
2019-02-19T20:10:33.079Z,4.23
2019-02-19T20:13:08.819Z,6.73
2019-02-19T20:16:08.260Z,5.53
2019-02-19T20:18:40.814Z,5.73
2019-02-19T20:21:10.865Z,6.27
2019-02-19T20:23:43.690Z,4.53
2019-02-19T20:26:17.086Z,3.87
2019-02-19T20:28:51.480Z,4.30
2019-02-19T20:31:27.203Z,3.90
2019-02-19T20:33:58.009Z,5.10
2019-02-19T20:36:39.047Z,5.67
2019-02-19T20:39:22.903Z,4.83
2019-02-19T20:41:55.378Z,4.13
2019-02-19T20:44:26.031Z,3.60
2019-02-19T20:46:56.779Z,4.00
2019-02-19T20:49:34.565Z,4.13
2019-02-19T20:52:07.026Z,4.17
2019-02-19T20:54:38.225Z,3.83
2019-02-19T20:57:12.875Z,3.90
2019-02-19T20:59:51.520Z,3.90
2019-02-19T21:02:25.368Z,4.47
2019-02-19T21:05:09.787Z,5.20
2019-02-19T21:07:47.723Z,5.17
2019-02-19T21:10:18.764Z,5.70
2019-02-19T21:12:49.273Z,4.77
2019-02-19T21:15:20.558Z,4.57
2019-02-19T21:17:52.441Z,4.23
2019-02-19T21:20:32.707Z,4.00
2019-02-19T21:23:03.520Z,4.00
2019-02-19T21:25:47.571Z,4.20
2019-02-19T21:28:17.630Z,4.43
2019-02-19T21:30:48.028Z,4.13
2019-02-19T21:33:24.888Z,4.27
2019-02-19T21:36:05.772Z,4.07
2019-02-19T21:38:46.188Z,4.30
2019-02-19T21:41:11.729Z,4.07
2019-02-19T21:43:44.419Z,4.87
2019-02-19T21:46:17.535Z,5.53
2019-02-19T21:48:57.131Z,5.63
2019-02-19T21:51:31.115Z,4.50
2019-02-19T21:54:01.262Z,4.17
2019-02-19T21:56:34.567Z,5.07
2019-02-19T21:59:10.573Z,6.30
2019-02-19T22:01:40.485Z,6.03
2019-02-19T22:04:24.930Z,5.83
2019-02-19T22:06:58.743Z,5.20
2019-02-19T22:09:37.042Z,6.13
2019-02-19T22:12:19.322Z,6.60
2019-02-19T22:14:49.347Z,6.70
2019-02-19T22:18:02.101Z,5.50
2019-02-19T22:20:41.173Z,5.60
2019-02-19T22:23:13.307Z,4.83
2019-02-19T22:26:04.404Z,6.13
2019-02-19T22:28:34.307Z,5.17
2019-02-19T22:31:07.832Z,4.07
2019-02-19T22:34:29.602Z,3.70
2019-02-19T22:36:59.807Z,3.90
2019-02-19T22:39:29.827Z,3.60
2019-02-19T22:42:00.145Z,4.50
2019-02-19T22:44:31.470Z,4.57
2019-02-19T22:47:01.326Z,3.00
2019-02-19T22:49:31.551Z,2.70
2019-02-19T22:52:01.465Z,4.47
2019-02-19T22:54:56.183Z,4.47
2019-02-19T22:57:29.634Z,2.90
2019-02-19T23:00:07.910Z,3.30
2019-02-19T23:02:37.711Z,5.80
2019-02-19T23:05:07.711Z,6.13
2019-02-19T23:07:40.889Z,10.77
2019-02-19T23:10:13.422Z,9.73
2019-02-19T23:12:46.862Z,8.70
2019-02-19T23:15:23.203Z,8.20
2019-02-19T23:17:54.712Z,9.10
2019-02-19T23:20:27.030Z,9.87
2019-02-19T23:22:57.339Z,8.77
2019-02-19T23:25:27.188Z,7.73
2019-02-19T23:28:00.434Z,8.03
2019-02-19T23:30:30.447Z,9.83
2019-02-19T23:33:00.762Z,10.60
2019-02-19T23:35:39.232Z,9.13
2019-02-19T23:38:09.107Z,10.20
2019-02-19T23:40:39.613Z,8.73
2019-02-19T23:43:09.976Z,7.87
2019-02-19T23:45:42.016Z,5.10
2019-02-19T23:48:11.953Z,5.93
2019-02-19T23:50:55.053Z,6.27
2019-02-19T23:53:26.253Z,4.77
2019-02-19T23:55:56.072Z,6.33
